sensor_id;sensor_type;location;lat;lon;timestamp;temperature;humidity
25871;DHT22;13689;48.590;7.752;2023-03-23T00:01:12;16.70;53.80
25871;DHT22;13689;48.590;7.752;2023-03-23T00:03:40;16.70;53.60
25871;DHT22;13689;48.590;7.752;2023-03-23T00:06:08;16.80;53.50
25871;DHT22;13689;48.590;7.752;2023-03-23T00:08:36;16.80;53.30
25871;DHT22;13689;48.590;7.752;2023-03-23T00:11:13;16.80;53.30
25871;DHT22;13689;48.590;7.752;2023-03-23T00:13:41;16.70;53.10
25871;DHT22;13689;48.590;7.752;2023-03-23T00:16:07;16.70;53.20
25871;DHT22;13689;48.590;7.752;2023-03-23T00:18:51;16.70;53.40
25871;DHT22;13689;48.590;7.752;2023-03-23T00:21:18;16.60;53.40
25871;DHT22;13689;48.590;7.752;2023-03-23T00:23:44;16.50;53.50
25871;DHT22;13689;48.590;7.752;2023-03-23T00:26:11;16.50;53.90
25871;DHT22;13689;48.590;7.752;2023-03-23T00:28:36;16.50;54.00
25871;DHT22;13689;48.590;7.752;2023-03-23T00:31:05;16.60;54.00
25871;DHT22;13689;48.590;7.752;2023-03-23T00:33:34;16.50;54.00
25871;DHT22;13689;48.590;7.752;2023-03-23T00:36:04;16.50;54.00
25871;DHT22;13689;48.590;7.752;2023-03-23T00:38:30;16.50;54.10
25871;DHT22;13689;48.590;7.752;2023-03-23T00:40:56;16.50;54.10
25871;DHT22;13689;48.590;7.752;2023-03-23T00:43:23;16.60;54.10
25871;DHT22;13689;48.590;7.752;2023-03-23T00:45:50;16.60;54.10
25871;DHT22;13689;48.590;7.752;2023-03-23T00:48:18;16.60;54.00
25871;DHT22;13689;48.590;7.752;2023-03-23T00:50:44;16.60;54.10
25871;DHT22;13689;48.590;7.752;2023-03-23T00:53:10;16.60;54.10
25871;DHT22;13689;48.590;7.752;2023-03-23T00:55:35;16.60;54.10
25871;DHT22;13689;48.590;7.752;2023-03-23T00:58:01;16.60;54.10
25871;DHT22;13689;48.590;7.752;2023-03-23T01:00:27;16.60;54.10
25871;DHT22;13689;48.590;7.752;2023-03-23T01:02:53;16.60;54.10
25871;DHT22;13689;48.590;7.752;2023-03-23T01:05:19;16.60;54.10
25871;DHT22;13689;48.590;7.752;2023-03-23T01:07:46;16.50;54.10
25871;DHT22;13689;48.590;7.752;2023-03-23T01:10:12;16.40;54.30
25871;DHT22;13689;48.590;7.752;2023-03-23T01:12:42;16.40;54.70
25871;DHT22;13689;48.590;7.752;2023-03-23T01:15:09;16.40;54.70
25871;DHT22;13689;48.590;7.752;2023-03-23T01:17:35;16.40;54.70
25871;DHT22;13689;48.590;7.752;2023-03-23T01:20:00;16.40;54.90
25871;DHT22;13689;48.590;7.752;2023-03-23T01:22:26;16.30;55.10
25871;DHT22;13689;48.590;7.752;2023-03-23T01:24:52;16.40;55.20
25871;DHT22;13689;48.590;7.752;2023-03-23T01:27:17;16.30;55.30
25871;DHT22;13689;48.590;7.752;2023-03-23T01:29:43;16.30;55.40
25871;DHT22;13689;48.590;7.752;2023-03-23T01:32:08;16.30;55.60
25871;DHT22;13689;48.590;7.752;2023-03-23T01:34:34;16.20;55.70
25871;DHT22;13689;48.590;7.752;2023-03-23T01:37:00;16.20;56.00
25871;DHT22;13689;48.590;7.752;2023-03-23T01:39:26;16.20;56.10
25871;DHT22;13689;48.590;7.752;2023-03-23T01:41:52;16.20;56.20
25871;DHT22;13689;48.590;7.752;2023-03-23T01:46:44;16.20;56.40
25871;DHT22;13689;48.590;7.752;2023-03-23T01:49:16;16.20;56.50
25871;DHT22;13689;48.590;7.752;2023-03-23T01:51:47;16.10;56.50
25871;DHT22;13689;48.590;7.752;2023-03-23T01:54:15;16.00;56.70
25871;DHT22;13689;48.590;7.752;2023-03-23T01:56:50;16.00;57.00
25871;DHT22;13689;48.590;7.752;2023-03-23T01:59:17;16.10;57.00
25871;DHT22;13689;48.590;7.752;2023-03-23T02:01:46;16.10;57.20
25871;DHT22;13689;48.590;7.752;2023-03-23T02:04:16;16.10;57.20
25871;DHT22;13689;48.590;7.752;2023-03-23T02:06:43;16.10;57.20
25871;DHT22;13689;48.590;7.752;2023-03-23T02:09:11;16.00;57.30
25871;DHT22;13689;48.590;7.752;2023-03-23T02:11:39;16.00;57.50
25871;DHT22;13689;48.590;7.752;2023-03-23T02:14:05;16.00;57.50
25871;DHT22;13689;48.590;7.752;2023-03-23T02:16:44;16.10;57.50
25871;DHT22;13689;48.590;7.752;2023-03-23T02:24:28;16.20;57.40
25871;DHT22;13689;48.590;7.752;2023-03-23T02:30:43;16.20;57.30
25871;DHT22;13689;48.590;7.752;2023-03-23T02:38:42;16.20;57.40
25871;DHT22;13689;48.590;7.752;2023-03-23T02:41:10;16.10;57.30
25871;DHT22;13689;48.590;7.752;2023-03-23T02:43:40;16.10;57.30
25871;DHT22;13689;48.590;7.752;2023-03-23T02:46:08;16.20;57.30
25871;DHT22;13689;48.590;7.752;2023-03-23T02:48:36;16.20;57.20
25871;DHT22;13689;48.590;7.752;2023-03-23T02:51:03;16.10;57.20
25871;DHT22;13689;48.590;7.752;2023-03-23T02:53:30;16.10;57.20
25871;DHT22;13689;48.590;7.752;2023-03-23T02:55:59;16.10;57.20
25871;DHT22;13689;48.590;7.752;2023-03-23T02:58:28;16.10;57.10
25871;DHT22;13689;48.590;7.752;2023-03-23T03:00:54;16.10;57.00
25871;DHT22;13689;48.590;7.752;2023-03-23T03:03:23;16.10;57.10
25871;DHT22;13689;48.590;7.752;2023-03-23T03:08:36;16.10;57.30
25871;DHT22;13689;48.590;7.752;2023-03-23T03:11:08;16.10;57.00
25871;DHT22;13689;48.590;7.752;2023-03-23T03:16:56;16.10;57.00
25871;DHT22;13689;48.590;7.752;2023-03-23T03:19:25;16.10;57.00
25871;DHT22;13689;48.590;7.752;2023-03-23T03:21:54;16.00;56.90
25871;DHT22;13689;48.590;7.752;2023-03-23T03:24:21;16.00;56.90
25871;DHT22;13689;48.590;7.752;2023-03-23T03:26:51;16.00;57.00
25871;DHT22;13689;48.590;7.752;2023-03-23T03:29:21;16.00;57.00
25871;DHT22;13689;48.590;7.752;2023-03-23T03:31:49;16.00;57.00
25871;DHT22;13689;48.590;7.752;2023-03-23T03:34:17;16.00;57.10
25871;DHT22;13689;48.590;7.752;2023-03-23T03:36:45;16.00;57.10
25871;DHT22;13689;48.590;7.752;2023-03-23T03:39:13;15.90;57.10
25871;DHT22;13689;48.590;7.752;2023-03-23T03:41:41;15.90;57.10
25871;DHT22;13689;48.590;7.752;2023-03-23T03:44:07;15.90;57.10
25871;DHT22;13689;48.590;7.752;2023-03-23T03:46:34;15.90;57.10
25871;DHT22;13689;48.590;7.752;2023-03-23T03:49:02;15.90;57.10
25871;DHT22;13689;48.590;7.752;2023-03-23T03:51:28;15.90;57.10
25871;DHT22;13689;48.590;7.752;2023-03-23T03:53:55;15.90;57.10
25871;DHT22;13689;48.590;7.752;2023-03-23T03:56:21;15.80;57.10
25871;DHT22;13689;48.590;7.752;2023-03-23T03:58:48;15.80;57.20
25871;DHT22;13689;48.590;7.752;2023-03-23T04:01:14;15.80;57.30
25871;DHT22;13689;48.590;7.752;2023-03-23T04:03:41;15.80;57.20
25871;DHT22;13689;48.590;7.752;2023-03-23T04:06:08;15.90;57.30
25871;DHT22;13689;48.590;7.752;2023-03-23T04:08:34;15.90;57.10
25871;DHT22;13689;48.590;7.752;2023-03-23T04:11:01;15.80;57.10
25871;DHT22;13689;48.590;7.752;2023-03-23T04:13:26;15.80;57.10
25871;DHT22;13689;48.590;7.752;2023-03-23T04:15:52;15.80;57.60
25871;DHT22;13689;48.590;7.752;2023-03-23T04:18:18;15.80;57.10
25871;DHT22;13689;48.590;7.752;2023-03-23T04:20:46;15.80;57.10
25871;DHT22;13689;48.590;7.752;2023-03-23T04:23:14;15.80;57.10
25871;DHT22;13689;48.590;7.752;2023-03-23T04:25:39;15.80;57.10
25871;DHT22;13689;48.590;7.752;2023-03-23T04:28:07;15.80;57.00
25871;DHT22;13689;48.590;7.752;2023-03-23T04:30:35;15.80;57.00
25871;DHT22;13689;48.590;7.752;2023-03-23T04:33:01;15.80;57.00
25871;DHT22;13689;48.590;7.752;2023-03-23T04:35:27;15.90;57.10
25871;DHT22;13689;48.590;7.752;2023-03-23T04:37:55;15.80;57.00
25871;DHT22;13689;48.590;7.752;2023-03-23T04:40:21;15.80;57.10
25871;DHT22;13689;48.590;7.752;2023-03-23T04:42:47;15.80;57.10
25871;DHT22;13689;48.590;7.752;2023-03-23T04:45:16;15.80;57.10
25871;DHT22;13689;48.590;7.752;2023-03-23T04:47:50;15.80;57.10
25871;DHT22;13689;48.590;7.752;2023-03-23T04:50:27;15.80;57.00
25871;DHT22;13689;48.590;7.752;2023-03-23T04:52:53;15.80;57.10
25871;DHT22;13689;48.590;7.752;2023-03-23T04:55:25;15.80;57.20
25871;DHT22;13689;48.590;7.752;2023-03-23T04:57:51;15.80;57.30
25871;DHT22;13689;48.590;7.752;2023-03-23T05:00:18;15.80;57.40
25871;DHT22;13689;48.590;7.752;2023-03-23T05:02:46;15.80;57.40
25871;DHT22;13689;48.590;7.752;2023-03-23T05:05:17;15.80;57.40
25871;DHT22;13689;48.590;7.752;2023-03-23T05:07:43;15.80;57.40
25871;DHT22;13689;48.590;7.752;2023-03-23T05:10:10;15.80;57.40
25871;DHT22;13689;48.590;7.752;2023-03-23T05:12:36;15.90;57.40
25871;DHT22;13689;48.590;7.752;2023-03-23T05:15:03;15.90;57.40
25871;DHT22;13689;48.590;7.752;2023-03-23T05:17:29;15.90;57.50
25871;DHT22;13689;48.590;7.752;2023-03-23T05:19:55;15.90;57.80
25871;DHT22;13689;48.590;7.752;2023-03-23T05:22:22;15.90;58.10
25871;DHT22;13689;48.590;7.752;2023-03-23T05:24:49;15.80;58.50
25871;DHT22;13689;48.590;7.752;2023-03-23T05:27:17;15.80;59.00
25871;DHT22;13689;48.590;7.752;2023-03-23T05:29:44;15.80;59.50
25871;DHT22;13689;48.590;7.752;2023-03-23T05:32:11;15.80;59.70
25871;DHT22;13689;48.590;7.752;2023-03-23T05:34:37;15.70;59.90
25871;DHT22;13689;48.590;7.752;2023-03-23T05:37:03;15.70;60.10
25871;DHT22;13689;48.590;7.752;2023-03-23T05:39:30;15.70;60.70
25871;DHT22;13689;48.590;7.752;2023-03-23T05:41:56;15.70;60.80
25871;DHT22;13689;48.590;7.752;2023-03-23T05:44:22;15.70;61.10
25871;DHT22;13689;48.590;7.752;2023-03-23T05:46:48;15.60;61.20
25871;DHT22;13689;48.590;7.752;2023-03-23T05:49:15;15.60;61.40
25871;DHT22;13689;48.590;7.752;2023-03-23T05:51:42;15.70;61.60
25871;DHT22;13689;48.590;7.752;2023-03-23T05:54:09;15.60;61.60
25871;DHT22;13689;48.590;7.752;2023-03-23T05:56:36;15.60;61.90
25871;DHT22;13689;48.590;7.752;2023-03-23T05:59:02;15.60;62.00
25871;DHT22;13689;48.590;7.752;2023-03-23T06:01:28;15.70;61.90
25871;DHT22;13689;48.590;7.752;2023-03-23T06:03:54;15.70;62.00
25871;DHT22;13689;48.590;7.752;2023-03-23T06:06:27;15.70;62.10
25871;DHT22;13689;48.590;7.752;2023-03-23T06:08:55;15.60;62.60
25871;DHT22;13689;48.590;7.752;2023-03-23T06:11:21;15.60;63.00
25871;DHT22;13689;48.590;7.752;2023-03-23T06:13:46;15.60;63.20
25871;DHT22;13689;48.590;7.752;2023-03-23T06:16:13;15.60;63.60
25871;DHT22;13689;48.590;7.752;2023-03-23T06:18:38;15.60;63.70
25871;DHT22;13689;48.590;7.752;2023-03-23T06:21:10;15.60;63.80
25871;DHT22;13689;48.590;7.752;2023-03-23T06:23:39;15.60;63.90
25871;DHT22;13689;48.590;7.752;2023-03-23T06:26:07;15.60;63.70
25871;DHT22;13689;48.590;7.752;2023-03-23T06:28:33;15.60;63.60
25871;DHT22;13689;48.590;7.752;2023-03-23T06:31:03;15.60;63.50
25871;DHT22;13689;48.590;7.752;2023-03-23T06:33:32;15.60;63.50
25871;DHT22;13689;48.590;7.752;2023-03-23T06:35:59;15.60;63.20
25871;DHT22;13689;48.590;7.752;2023-03-23T06:38:25;15.60;63.00
25871;DHT22;13689;48.590;7.752;2023-03-23T06:40:52;15.60;62.80
25871;DHT22;13689;48.590;7.752;2023-03-23T06:43:19;15.70;62.70
25871;DHT22;13689;48.590;7.752;2023-03-23T06:45:44;15.70;62.70
25871;DHT22;13689;48.590;7.752;2023-03-23T06:48:10;15.70;62.60
25871;DHT22;13689;48.590;7.752;2023-03-23T06:50:36;15.70;62.50
25871;DHT22;13689;48.590;7.752;2023-03-23T06:53:02;15.70;62.50
25871;DHT22;13689;48.590;7.752;2023-03-23T06:55:27;15.70;62.60
25871;DHT22;13689;48.590;7.752;2023-03-23T06:57:53;15.70;62.70
25871;DHT22;13689;48.590;7.752;2023-03-23T07:00:19;15.70;62.60
25871;DHT22;13689;48.590;7.752;2023-03-23T07:02:44;15.70;62.70
25871;DHT22;13689;48.590;7.752;2023-03-23T07:05:11;15.70;62.80
25871;DHT22;13689;48.590;7.752;2023-03-23T07:07:38;15.70;62.80
25871;DHT22;13689;48.590;7.752;2023-03-23T07:10:06;15.70;62.90
25871;DHT22;13689;48.590;7.752;2023-03-23T07:12:32;15.70;63.00
25871;DHT22;13689;48.590;7.752;2023-03-23T07:14:58;15.70;63.10
25871;DHT22;13689;48.590;7.752;2023-03-23T07:17:24;15.70;63.20
25871;DHT22;13689;48.590;7.752;2023-03-23T07:19:50;15.80;63.30
25871;DHT22;13689;48.590;7.752;2023-03-23T07:32:26;15.80;64.30
25871;DHT22;13689;48.590;7.752;2023-03-23T07:34:54;15.80;64.40
25871;DHT22;13689;48.590;7.752;2023-03-23T07:37:23;15.80;63.60
25871;DHT22;13689;48.590;7.752;2023-03-23T07:40:16;15.80;63.70
25871;DHT22;13689;48.590;7.752;2023-03-23T07:43:13;15.80;63.80
25871;DHT22;13689;48.590;7.752;2023-03-23T07:45:56;15.80;64.00
25871;DHT22;13689;48.590;7.752;2023-03-23T07:48:22;15.80;64.10
25871;DHT22;13689;48.590;7.752;2023-03-23T07:50:56;15.90;64.20
25871;DHT22;13689;48.590;7.752;2023-03-23T07:53:58;15.90;64.20
25871;DHT22;13689;48.590;7.752;2023-03-23T07:56:56;15.90;64.40
25871;DHT22;13689;48.590;7.752;2023-03-23T07:59:42;16.00;64.40
25871;DHT22;13689;48.590;7.752;2023-03-23T08:02:19;16.00;64.30
25871;DHT22;13689;48.590;7.752;2023-03-23T08:04:47;16.10;64.30
25871;DHT22;13689;48.590;7.752;2023-03-23T08:07:26;16.20;64.20
25871;DHT22;13689;48.590;7.752;2023-03-23T08:09:51;16.20;64.20
25871;DHT22;13689;48.590;7.752;2023-03-23T08:15:47;16.20;64.00
25871;DHT22;13689;48.590;7.752;2023-03-23T08:18:16;16.30;63.70
25871;DHT22;13689;48.590;7.752;2023-03-23T08:24:20;16.50;63.10
25871;DHT22;13689;48.590;7.752;2023-03-23T08:26:49;16.50;62.80
25871;DHT22;13689;48.590;7.752;2023-03-23T08:29:28;16.50;62.50
25871;DHT22;13689;48.590;7.752;2023-03-23T08:32:00;16.50;62.50
25871;DHT22;13689;48.590;7.752;2023-03-23T08:34:28;16.40;62.60
25871;DHT22;13689;48.590;7.752;2023-03-23T08:36:54;16.50;62.80
25871;DHT22;13689;48.590;7.752;2023-03-23T08:39:20;16.40;62.80
25871;DHT22;13689;48.590;7.752;2023-03-23T08:41:48;16.40;62.90
25871;DHT22;13689;48.590;7.752;2023-03-23T08:44:14;16.40;62.90
25871;DHT22;13689;48.590;7.752;2023-03-23T08:46:40;16.40;62.90
25871;DHT22;13689;48.590;7.752;2023-03-23T08:49:05;16.50;62.80
25871;DHT22;13689;48.590;7.752;2023-03-23T08:51:32;16.50;62.50
25871;DHT22;13689;48.590;7.752;2023-03-23T08:53:58;16.60;62.40
25871;DHT22;13689;48.590;7.752;2023-03-23T08:56:24;16.60;61.90
25871;DHT22;13689;48.590;7.752;2023-03-23T08:58:50;16.60;61.70
25871;DHT22;13689;48.590;7.752;2023-03-23T09:01:16;16.60;61.60
25871;DHT22;13689;48.590;7.752;2023-03-23T09:03:41;16.60;61.30
25871;DHT22;13689;48.590;7.752;2023-03-23T09:06:08;16.60;61.10
25871;DHT22;13689;48.590;7.752;2023-03-23T09:08:34;16.60;61.00
25871;DHT22;13689;48.590;7.752;2023-03-23T09:11:06;16.60;60.90
25871;DHT22;13689;48.590;7.752;2023-03-23T09:13:33;16.60;60.80
25871;DHT22;13689;48.590;7.752;2023-03-23T09:15:59;16.70;60.70
25871;DHT22;13689;48.590;7.752;2023-03-23T09:18:25;16.80;60.60
25871;DHT22;13689;48.590;7.752;2023-03-23T09:20:51;16.80;60.50
25871;DHT22;13689;48.590;7.752;2023-03-23T09:23:19;16.80;60.40
25871;DHT22;13689;48.590;7.752;2023-03-23T09:25:46;16.80;60.30
25871;DHT22;13689;48.590;7.752;2023-03-23T09:28:14;16.80;60.30
25871;DHT22;13689;48.590;7.752;2023-03-23T09:30:40;16.80;60.20
25871;DHT22;13689;48.590;7.752;2023-03-23T09:33:07;16.80;60.20
25871;DHT22;13689;48.590;7.752;2023-03-23T09:35:35;16.80;60.00
25871;DHT22;13689;48.590;7.752;2023-03-23T09:38:04;16.90;59.90
25871;DHT22;13689;48.590;7.752;2023-03-23T09:43:23;17.00;59.70
25871;DHT22;13689;48.590;7.752;2023-03-23T09:46:19;17.00;59.70
25871;DHT22;13689;48.590;7.752;2023-03-23T09:48:54;17.00;59.70
25871;DHT22;13689;48.590;7.752;2023-03-23T09:53:55;17.10;59.60
25871;DHT22;13689;48.590;7.752;2023-03-23T09:56:23;17.10;59.50
25871;DHT22;13689;48.590;7.752;2023-03-23T09:58:56;17.10;59.50
25871;DHT22;13689;48.590;7.752;2023-03-23T10:01:34;17.20;59.50
25871;DHT22;13689;48.590;7.752;2023-03-23T10:06:48;17.20;59.60
25871;DHT22;13689;48.590;7.752;2023-03-23T10:09:16;17.20;59.60
25871;DHT22;13689;48.590;7.752;2023-03-23T10:14:48;17.20;59.70
25871;DHT22;13689;48.590;7.752;2023-03-23T10:17:28;17.20;59.70
25871;DHT22;13689;48.590;7.752;2023-03-23T10:20:32;17.20;59.60
25871;DHT22;13689;48.590;7.752;2023-03-23T10:28:58;17.40;59.40
25871;DHT22;13689;48.590;7.752;2023-03-23T10:31:31;17.50;59.30
25871;DHT22;13689;48.590;7.752;2023-03-23T10:34:03;17.60;59.10
25871;DHT22;13689;48.590;7.752;2023-03-23T10:37:04;17.70;59.30
25871;DHT22;13689;48.590;7.752;2023-03-23T10:39:52;17.90;58.40
25871;DHT22;13689;48.590;7.752;2023-03-23T10:42:31;18.00;58.00
25871;DHT22;13689;48.590;7.752;2023-03-23T10:44:59;18.00;57.70
25871;DHT22;13689;48.590;7.752;2023-03-23T10:47:25;18.00;57.60
25871;DHT22;13689;48.590;7.752;2023-03-23T10:50:02;18.00;57.40
25871;DHT22;13689;48.590;7.752;2023-03-23T10:52:39;18.00;57.20
25871;DHT22;13689;48.590;7.752;2023-03-23T10:57:41;18.20;56.80
25871;DHT22;13689;48.590;7.752;2023-03-23T11:02:42;18.50;56.30
25871;DHT22;13689;48.590;7.752;2023-03-23T11:05:24;18.60;56.00
25871;DHT22;13689;48.590;7.752;2023-03-23T11:07:56;18.70;55.70
25871;DHT22;13689;48.590;7.752;2023-03-23T11:10:34;18.80;55.60
25871;DHT22;13689;48.590;7.752;2023-03-23T11:13:00;18.80;55.50
25871;DHT22;13689;48.590;7.752;2023-03-23T11:15:30;18.70;55.50
25871;DHT22;13689;48.590;7.752;2023-03-23T11:18:05;18.70;55.70
25871;DHT22;13689;48.590;7.752;2023-03-23T11:20:44;18.70;56.00
25871;DHT22;13689;48.590;7.752;2023-03-23T11:23:21;18.70;56.20
25871;DHT22;13689;48.590;7.752;2023-03-23T11:26:25;18.70;56.80
25871;DHT22;13689;48.590;7.752;2023-03-23T11:29:17;18.80;56.30
25871;DHT22;13689;48.590;7.752;2023-03-23T11:31:49;18.80;56.30
25871;DHT22;13689;48.590;7.752;2023-03-23T11:34:26;18.70;56.40
25871;DHT22;13689;48.590;7.752;2023-03-23T11:40:00;18.70;56.70
25871;DHT22;13689;48.590;7.752;2023-03-23T11:42:36;18.70;56.60
25871;DHT22;13689;48.590;7.752;2023-03-23T11:45:36;18.70;56.40
25871;DHT22;13689;48.590;7.752;2023-03-23T11:48:12;18.70;56.50
25871;DHT22;13689;48.590;7.752;2023-03-23T11:50:53;18.60;56.50
25871;DHT22;13689;48.590;7.752;2023-03-23T11:53:48;18.60;56.60
25871;DHT22;13689;48.590;7.752;2023-03-23T11:56:24;18.60;56.70
25871;DHT22;13689;48.590;7.752;2023-03-23T11:58:53;18.60;56.70
25871;DHT22;13689;48.590;7.752;2023-03-23T12:01:40;18.60;56.70
25871;DHT22;13689;48.590;7.752;2023-03-23T12:28:50;18.70;55.90
25871;DHT22;13689;48.590;7.752;2023-03-23T12:31:22;18.70;55.80
25871;DHT22;13689;48.590;7.752;2023-03-23T12:42:27;18.80;54.90
25871;DHT22;13689;48.590;7.752;2023-03-23T12:47:42;18.90;55.30
25871;DHT22;13689;48.590;7.752;2023-03-23T12:52:54;18.90;54.20
25871;DHT22;13689;48.590;7.752;2023-03-23T12:55:34;19.00;54.20
25871;DHT22;13689;48.590;7.752;2023-03-23T12:58:09;19.10;54.10
25871;DHT22;13689;48.590;7.752;2023-03-23T13:03:34;19.20;53.70
25871;DHT22;13689;48.590;7.752;2023-03-23T13:08:58;19.20;53.50
25871;DHT22;13689;48.590;7.752;2023-03-23T13:11:49;19.20;53.40
25871;DHT22;13689;48.590;7.752;2023-03-23T13:14:41;19.20;53.30
25871;DHT22;13689;48.590;7.752;2023-03-23T13:23:08;19.30;53.00
25871;DHT22;13689;48.590;7.752;2023-03-23T13:25:56;19.40;52.90
25871;DHT22;13689;48.590;7.752;2023-03-23T13:28:33;19.40;52.70
25871;DHT22;13689;48.590;7.752;2023-03-23T13:33:30;19.30;52.60
25871;DHT22;13689;48.590;7.752;2023-03-23T13:35:56;19.30;52.70
25871;DHT22;13689;48.590;7.752;2023-03-23T13:38:27;19.10;52.80
25871;DHT22;13689;48.590;7.752;2023-03-23T13:40:57;19.10;53.00
25871;DHT22;13689;48.590;7.752;2023-03-23T13:43:31;19.00;53.00
25871;DHT22;13689;48.590;7.752;2023-03-23T13:48:51;18.90;53.20
25871;DHT22;13689;48.590;7.752;2023-03-23T13:51:36;18.90;53.20
25871;DHT22;13689;48.590;7.752;2023-03-23T13:54:30;18.90;53.30
25871;DHT22;13689;48.590;7.752;2023-03-23T13:57:01;18.90;53.20
25871;DHT22;13689;48.590;7.752;2023-03-23T13:59:48;18.90;53.30
25871;DHT22;13689;48.590;7.752;2023-03-23T14:02:41;18.90;53.30
25871;DHT22;13689;48.590;7.752;2023-03-23T14:08:00;18.90;53.40
25871;DHT22;13689;48.590;7.752;2023-03-23T14:13:18;18.90;53.50
25871;DHT22;13689;48.590;7.752;2023-03-23T14:18:25;18.80;53.90
25871;DHT22;13689;48.590;7.752;2023-03-23T14:20:52;18.80;54.20
25871;DHT22;13689;48.590;7.752;2023-03-23T14:23:19;18.80;54.30
25871;DHT22;13689;48.590;7.752;2023-03-23T14:25:58;18.80;54.30
25871;DHT22;13689;48.590;7.752;2023-03-23T14:28:40;18.80;54.40
25871;DHT22;13689;48.590;7.752;2023-03-23T14:31:18;18.70;54.50
25871;DHT22;13689;48.590;7.752;2023-03-23T14:33:44;18.70;54.60
25871;DHT22;13689;48.590;7.752;2023-03-23T14:36:10;18.70;54.60
25871;DHT22;13689;48.590;7.752;2023-03-23T14:38:36;18.70;54.60
25871;DHT22;13689;48.590;7.752;2023-03-23T14:41:03;18.70;54.60
25871;DHT22;13689;48.590;7.752;2023-03-23T14:43:31;18.70;54.70
25871;DHT22;13689;48.590;7.752;2023-03-23T14:46:01;18.80;54.70
25871;DHT22;13689;48.590;7.752;2023-03-23T14:48:27;18.90;54.70
25871;DHT22;13689;48.590;7.752;2023-03-23T14:50:59;18.80;54.70
25871;DHT22;13689;48.590;7.752;2023-03-23T14:53:37;18.90;54.70
25871;DHT22;13689;48.590;7.752;2023-03-23T14:56:14;18.90;54.50
25871;DHT22;13689;48.590;7.752;2023-03-23T14:58:45;18.90;54.50
25871;DHT22;13689;48.590;7.752;2023-03-23T15:01:13;19.00;54.50
25871;DHT22;13689;48.590;7.752;2023-03-23T15:04:03;19.00;54.50
25871;DHT22;13689;48.590;7.752;2023-03-23T15:06:42;19.00;54.40
25871;DHT22;13689;48.590;7.752;2023-03-23T15:09:15;19.10;54.40
25871;DHT22;13689;48.590;7.752;2023-03-23T15:11:58;19.00;54.40
25871;DHT22;13689;48.590;7.752;2023-03-23T15:17:05;19.00;54.30
25871;DHT22;13689;48.590;7.752;2023-03-23T15:19:46;19.00;54.00
25871;DHT22;13689;48.590;7.752;2023-03-23T15:22:27;19.00;53.70
25871;DHT22;13689;48.590;7.752;2023-03-23T15:25:31;19.00;53.20
25871;DHT22;13689;48.590;7.752;2023-03-23T15:28:09;18.90;52.80
25871;DHT22;13689;48.590;7.752;2023-03-23T15:30:50;18.90;52.80
25871;DHT22;13689;48.590;7.752;2023-03-23T15:33:20;18.90;52.60
25871;DHT22;13689;48.590;7.752;2023-03-23T15:35:57;18.90;52.50
25871;DHT22;13689;48.590;7.752;2023-03-23T15:38:26;18.90;52.20
25871;DHT22;13689;48.590;7.752;2023-03-23T15:40:56;18.90;51.90
25871;DHT22;13689;48.590;7.752;2023-03-23T15:51:31;18.90;51.30
25871;DHT22;13689;48.590;7.752;2023-03-23T15:54:21;18.90;51.10
25871;DHT22;13689;48.590;7.752;2023-03-23T15:56:49;18.90;51.10
25871;DHT22;13689;48.590;7.752;2023-03-23T15:59:15;18.90;51.10
25871;DHT22;13689;48.590;7.752;2023-03-23T16:01:56;18.80;51.10
25871;DHT22;13689;48.590;7.752;2023-03-23T16:07:25;18.80;51.00
25871;DHT22;13689;48.590;7.752;2023-03-23T16:10:21;18.70;51.00
25871;DHT22;13689;48.590;7.752;2023-03-23T16:12:58;18.70;51.00
25871;DHT22;13689;48.590;7.752;2023-03-23T16:15:39;18.70;50.70
25871;DHT22;13689;48.590;7.752;2023-03-23T16:18:33;18.60;50.90
25871;DHT22;13689;48.590;7.752;2023-03-23T16:24:37;18.60;52.30
25871;DHT22;13689;48.590;7.752;2023-03-23T16:27:15;18.50;52.60
25871;DHT22;13689;48.590;7.752;2023-03-23T16:29:48;18.50;53.00
25871;DHT22;13689;48.590;7.752;2023-03-23T16:32:26;18.50;53.10
25871;DHT22;13689;48.590;7.752;2023-03-23T16:34:52;18.50;53.30
25871;DHT22;13689;48.590;7.752;2023-03-23T16:41:14;18.40;53.30
25871;DHT22;13689;48.590;7.752;2023-03-23T16:44:02;18.40;53.30
25871;DHT22;13689;48.590;7.752;2023-03-23T16:46:28;18.30;53.30
25871;DHT22;13689;48.590;7.752;2023-03-23T16:49:05;18.40;53.20
25871;DHT22;13689;48.590;7.752;2023-03-23T16:51:31;18.30;53.00
25871;DHT22;13689;48.590;7.752;2023-03-23T16:54:00;18.30;53.00
25871;DHT22;13689;48.590;7.752;2023-03-23T16:56:39;18.30;52.90
25871;DHT22;13689;48.590;7.752;2023-03-23T17:03:07;18.30;52.60
25871;DHT22;13689;48.590;7.752;2023-03-23T17:09:14;18.20;52.40
25871;DHT22;13689;48.590;7.752;2023-03-23T17:14:57;18.20;52.40
25871;DHT22;13689;48.590;7.752;2023-03-23T17:25:00;18.10;52.50
25871;DHT22;13689;48.590;7.752;2023-03-23T17:30:54;18.00;52.60
25871;DHT22;13689;48.590;7.752;2023-03-23T17:33:20;18.00;52.70
25871;DHT22;13689;48.590;7.752;2023-03-23T17:35:46;18.00;52.80
25871;DHT22;13689;48.590;7.752;2023-03-23T17:38:16;18.00;52.90
25871;DHT22;13689;48.590;7.752;2023-03-23T17:40:42;18.00;53.00
25871;DHT22;13689;48.590;7.752;2023-03-23T17:43:08;18.00;53.00
25871;DHT22;13689;48.590;7.752;2023-03-23T17:45:33;17.90;53.00
25871;DHT22;13689;48.590;7.752;2023-03-23T17:48:00;18.00;53.00
25871;DHT22;13689;48.590;7.752;2023-03-23T17:50:26;17.90;53.00
25871;DHT22;13689;48.590;7.752;2023-03-23T17:52:52;17.90;53.10
25871;DHT22;13689;48.590;7.752;2023-03-23T17:55:18;17.90;53.10
25871;DHT22;13689;48.590;7.752;2023-03-23T17:57:43;17.90;53.10
25871;DHT22;13689;48.590;7.752;2023-03-23T18:00:09;17.90;53.70
25871;DHT22;13689;48.590;7.752;2023-03-23T18:02:42;17.90;53.10
25871;DHT22;13689;48.590;7.752;2023-03-23T18:05:19;17.90;53.10
25871;DHT22;13689;48.590;7.752;2023-03-23T18:07:47;17.90;53.10
25871;DHT22;13689;48.590;7.752;2023-03-23T18:10:17;17.90;53.10
25871;DHT22;13689;48.590;7.752;2023-03-23T18:12:58;17.90;53.20
25871;DHT22;13689;48.590;7.752;2023-03-23T18:15:33;17.90;53.20
25871;DHT22;13689;48.590;7.752;2023-03-23T18:18:01;17.80;53.20
25871;DHT22;13689;48.590;7.752;2023-03-23T18:20:38;17.90;53.30
25871;DHT22;13689;48.590;7.752;2023-03-23T18:23:03;17.80;53.30
25871;DHT22;13689;48.590;7.752;2023-03-23T18:25:36;17.80;53.30
25871;DHT22;13689;48.590;7.752;2023-03-23T18:28:07;17.80;53.30
25871;DHT22;13689;48.590;7.752;2023-03-23T18:30:34;17.80;53.40
25871;DHT22;13689;48.590;7.752;2023-03-23T18:32:59;17.80;53.30
25871;DHT22;13689;48.590;7.752;2023-03-23T18:35:25;17.80;53.40
25871;DHT22;13689;48.590;7.752;2023-03-23T18:37:51;17.80;53.40
25871;DHT22;13689;48.590;7.752;2023-03-23T18:40:24;17.80;53.40
25871;DHT22;13689;48.590;7.752;2023-03-23T18:43:01;17.80;53.50
25871;DHT22;13689;48.590;7.752;2023-03-23T18:45:29;17.80;53.50